createdAt,value
2018-09-14T00:00:54.969Z,55.50
2018-09-14T00:02:12.106Z,55.50
2018-09-14T00:03:28.893Z,55.50
2018-09-14T00:04:45.761Z,55.50
2018-09-14T00:06:02.554Z,56.10
2018-09-14T00:07:19.361Z,55.50
2018-09-14T00:08:36.135Z,55.50
2018-09-14T00:09:53.097Z,55.40
2018-09-14T00:11:10.637Z,55.40
2018-09-14T00:12:27.197Z,55.40
2018-09-14T00:13:43.874Z,55.40
2018-09-14T00:15:00.839Z,55.50
2018-09-14T00:16:17.660Z,55.30
2018-09-14T00:17:34.774Z,55.20
2018-09-14T00:18:51.401Z,55.40
2018-09-14T00:20:08.236Z,55.20
2018-09-14T00:21:24.906Z,55.10
2018-09-14T00:22:41.925Z,55.10
2018-09-14T00:23:58.968Z,55.20
2018-09-14T00:25:16.480Z,55.20
2018-09-14T00:26:33.168Z,55.30
2018-09-14T00:27:49.927Z,55.10
2018-09-14T00:29:06.631Z,55.80
2018-09-14T00:30:23.472Z,55.10
2018-09-14T00:31:40.058Z,55.20
2018-09-14T00:32:56.685Z,55.10
2018-09-14T00:34:13.462Z,55.20
2018-09-14T00:35:30.104Z,55.10
2018-09-14T00:36:47.142Z,55.10
2018-09-14T00:38:04.677Z,55.70
2018-09-14T00:39:21.665Z,55.10
2018-09-14T00:40:38.337Z,55.00
2018-09-14T00:41:54.976Z,55.20
2018-09-14T00:43:11.966Z,55.00
2018-09-14T00:44:28.778Z,55.70
2018-09-14T00:45:45.363Z,55.00
2018-09-14T00:47:02.005Z,55.60
2018-09-14T00:48:18.813Z,54.90
2018-09-14T00:49:35.344Z,54.90
2018-09-14T00:50:52.189Z,54.90
2018-09-14T00:52:08.944Z,54.90
2018-09-14T00:53:25.763Z,55.70
2018-09-14T00:54:42.713Z,55.70
2018-09-14T00:55:59.534Z,54.90
2018-09-14T00:57:16.443Z,54.90
2018-09-14T00:58:33.257Z,55.00
2018-09-14T00:59:49.998Z,54.80
2018-09-14T01:01:06.937Z,54.90
2018-09-14T01:02:23.610Z,54.90
2018-09-14T01:03:40.053Z,55.00
2018-09-14T01:04:57.013Z,54.80
2018-09-14T01:06:13.831Z,54.90
2018-09-14T01:07:30.547Z,54.90
2018-09-14T01:08:47.382Z,54.90
2018-09-14T01:10:05.362Z,54.90
2018-09-14T01:11:22.920Z,54.90
2018-09-14T01:12:39.461Z,54.90
2018-09-14T01:13:56.410Z,54.80
2018-09-14T01:15:13.393Z,54.90
2018-09-14T01:16:30.237Z,54.70
2018-09-14T01:17:46.763Z,54.60
2018-09-14T01:19:03.583Z,54.60
2018-09-14T01:20:20.507Z,54.60
2018-09-14T01:21:37.258Z,54.10
2018-09-14T01:22:54.045Z,54.50
2018-09-14T01:24:10.818Z,54.50
2018-09-14T01:25:27.682Z,54.70
2018-09-14T01:26:44.546Z,54.80
2018-09-14T01:28:01.437Z,54.70
2018-09-14T01:29:18.462Z,54.70
2018-09-14T01:30:35.745Z,54.70
2018-09-14T01:31:52.630Z,54.70
2018-09-14T01:33:09.332Z,54.70
2018-09-14T01:34:26.273Z,54.70
2018-09-14T01:35:48.298Z,54.70
2018-09-14T01:37:05.709Z,54.60
2018-09-14T01:38:22.549Z,54.70
2018-09-14T01:39:39.410Z,54.70
2018-09-14T01:40:56.178Z,54.60
2018-09-14T01:42:12.895Z,54.70
2018-09-14T01:43:29.674Z,55.00
2018-09-14T01:44:46.483Z,54.70
2018-09-14T01:46:03.057Z,54.70
2018-09-14T01:47:19.724Z,54.60
2018-09-14T01:48:36.790Z,54.70
2018-09-14T01:49:53.506Z,54.70
2018-09-14T01:51:10.307Z,54.00
2018-09-14T01:52:27.417Z,54.50
2018-09-14T01:53:44.165Z,54.40
2018-09-14T01:55:00.875Z,54.50
2018-09-14T01:56:17.615Z,55.20
2018-09-14T01:57:34.477Z,54.50
2018-09-14T01:58:51.108Z,54.50
2018-09-14T02:00:08.188Z,54.50
2018-09-14T02:01:25.017Z,54.70
2018-09-14T02:02:42.199Z,54.10
2018-09-14T02:03:59.736Z,54.40
2018-09-14T02:05:16.528Z,54.50
2018-09-14T02:06:34.093Z,54.50
2018-09-14T02:07:51.573Z,55.20
2018-09-14T02:09:10.217Z,54.60
2018-09-14T02:10:26.953Z,54.60
2018-09-14T02:11:44.279Z,54.60
2018-09-14T02:13:01.257Z,54.50
2018-09-14T02:14:18.354Z,54.60
2018-09-14T02:15:35.889Z,55.20
2018-09-14T02:16:52.859Z,54.50
2018-09-14T02:18:09.486Z,54.50
2018-09-14T02:19:26.398Z,54.60
2018-09-14T02:20:43.322Z,55.10
2018-09-14T02:21:59.857Z,55.20
2018-09-14T02:23:16.632Z,54.90
2018-09-14T02:24:33.596Z,54.50
2018-09-14T02:25:50.418Z,54.50
2018-09-14T02:27:07.322Z,54.40
2018-09-14T02:28:24.034Z,54.90
2018-09-14T02:29:40.661Z,54.30
2018-09-14T02:30:57.521Z,54.20
2018-09-14T02:32:14.146Z,54.90
2018-09-14T02:33:31.122Z,54.30
2018-09-14T02:34:47.873Z,53.80
2018-09-14T02:36:04.743Z,54.40
2018-09-14T02:37:21.621Z,54.50
2018-09-14T02:38:38.354Z,54.50
2018-09-14T02:39:54.967Z,54.50
2018-09-14T02:41:11.868Z,54.50
2018-09-14T02:42:28.936Z,54.30
2018-09-14T02:43:46.426Z,54.30
2018-09-14T02:45:03.429Z,54.30
2018-09-14T02:46:20.070Z,54.40
2018-09-14T02:47:36.655Z,54.40
2018-09-14T02:48:53.416Z,54.50
2018-09-14T02:50:10.109Z,55.10
2018-09-14T02:51:26.697Z,53.80
2018-09-14T02:52:43.391Z,54.30
2018-09-14T02:54:00.278Z,54.40
2018-09-14T02:55:17.078Z,54.50
2018-09-14T02:56:34.069Z,54.30
2018-09-14T02:57:50.864Z,54.50
2018-09-14T02:59:07.679Z,54.40
2018-09-14T03:00:24.714Z,54.30
2018-09-14T03:01:41.784Z,54.30
2018-09-14T03:02:58.449Z,54.30
2018-09-14T03:04:15.500Z,54.30
2018-09-14T03:05:32.828Z,54.30
2018-09-14T03:06:50.268Z,54.20
2018-09-14T03:08:07.375Z,54.30
2018-09-14T03:09:24.038Z,54.30
2018-09-14T03:10:40.696Z,54.20
2018-09-14T03:11:57.374Z,54.10
2018-09-14T03:13:14.296Z,54.00
2018-09-14T03:14:31.507Z,54.80
2018-09-14T03:15:49.476Z,54.10
2018-09-14T03:17:06.561Z,54.10
2018-09-14T03:18:23.358Z,54.10
2018-09-14T03:19:40.175Z,54.00
2018-09-14T03:20:56.940Z,54.00
2018-09-14T03:22:13.860Z,54.00
2018-09-14T03:23:30.612Z,53.90
2018-09-14T03:24:47.684Z,54.00
2018-09-14T03:26:04.342Z,53.30
2018-09-14T03:27:21.007Z,54.00
2018-09-14T03:28:37.892Z,53.90
2018-09-14T03:29:55.567Z,54.00
2018-09-14T03:31:12.172Z,54.00
2018-09-14T03:32:28.853Z,54.00
2018-09-14T03:33:45.482Z,54.00
2018-09-14T03:35:02.387Z,54.00
2018-09-14T03:36:19.152Z,53.90
2018-09-14T03:37:36.433Z,53.90
2018-09-14T03:38:53.205Z,54.00
2018-09-14T03:40:09.847Z,53.30
2018-09-14T03:41:26.811Z,53.90
2018-09-14T03:42:44.232Z,54.50
2018-09-14T03:44:01.114Z,53.90
2018-09-14T03:45:17.952Z,54.00
2018-09-14T03:46:34.445Z,54.00
2018-09-14T03:47:51.768Z,54.60
2018-09-14T03:49:09.111Z,54.00
2018-09-14T03:50:25.740Z,53.90
2018-09-14T03:51:42.633Z,53.90
2018-09-14T03:52:59.610Z,53.80
2018-09-14T03:54:16.277Z,53.90
2018-09-14T03:55:33.157Z,54.40
2018-09-14T03:56:49.978Z,53.80
2018-09-14T03:58:06.551Z,53.80
2018-09-14T03:59:23.470Z,53.80
2018-09-14T04:00:40.478Z,53.80
2018-09-14T04:01:58.197Z,53.80
2018-09-14T04:03:14.870Z,53.90
2018-09-14T04:04:31.604Z,54.40
2018-09-14T04:05:48.344Z,53.70
2018-09-14T04:07:05.169Z,53.70
2018-09-14T04:08:21.765Z,53.70
2018-09-14T04:09:45.129Z,53.70
2018-09-14T04:11:02.280Z,53.70
2018-09-14T04:12:19.159Z,53.70
2018-09-14T04:13:36.117Z,53.90
2018-09-14T04:14:53.165Z,53.70
2018-09-14T04:16:09.813Z,53.70
2018-09-14T04:17:26.827Z,53.80
2018-09-14T04:18:47.827Z,53.70
2018-09-14T04:20:05.155Z,53.70
2018-09-14T04:21:22.190Z,53.70
2018-09-14T04:22:39.784Z,53.70
2018-09-14T04:23:56.524Z,53.40
2018-09-14T04:25:13.464Z,54.00
2018-09-14T04:26:30.201Z,53.90
2018-09-14T04:27:47.421Z,53.70
2018-09-14T04:29:04.942Z,53.80
2018-09-14T04:30:21.685Z,53.80
2018-09-14T04:31:38.554Z,53.90
2018-09-14T04:32:55.334Z,53.40
2018-09-14T04:34:12.455Z,53.80
2018-09-14T04:35:30.185Z,53.90
2018-09-14T04:36:46.797Z,53.70
2018-09-14T04:38:04.547Z,53.70
2018-09-14T04:39:21.148Z,54.00
2018-09-14T04:40:37.990Z,54.00
2018-09-14T04:41:54.986Z,54.10
2018-09-14T04:43:11.735Z,54.00
2018-09-14T04:44:28.828Z,54.00
2018-09-14T04:45:45.622Z,53.90
2018-09-14T04:47:02.391Z,53.80
2018-09-14T04:48:19.279Z,53.50
2018-09-14T04:49:35.929Z,53.60
2018-09-14T04:50:52.723Z,53.50
2018-09-14T04:52:09.602Z,53.50
2018-09-14T04:53:26.359Z,53.50
2018-09-14T04:54:44.284Z,53.50
2018-09-14T04:56:01.859Z,53.50
2018-09-14T04:57:19.735Z,53.50
2018-09-14T04:58:36.492Z,54.10
2018-09-14T04:59:54.022Z,53.50
2018-09-14T05:01:10.633Z,53.50
2018-09-14T05:02:27.711Z,53.50
2018-09-14T05:03:44.440Z,54.20
2018-09-14T05:05:01.302Z,53.50
2018-09-14T05:06:17.985Z,53.50
2018-09-14T05:07:34.940Z,53.60
2018-09-14T05:08:51.863Z,54.30
2018-09-14T05:10:09.509Z,53.50
2018-09-14T05:11:26.195Z,53.50
2018-09-14T05:12:43.070Z,53.40
2018-09-14T05:13:59.768Z,53.60
2018-09-14T05:15:16.523Z,53.70
2018-09-14T05:16:33.801Z,53.70
2018-09-14T05:17:51.084Z,53.90
2018-09-14T05:19:08.213Z,53.80
2018-09-14T05:20:25.779Z,53.80
2018-09-14T05:21:42.562Z,53.70
2018-09-14T05:22:59.834Z,53.80
2018-09-14T05:24:17.161Z,53.90
2018-09-14T05:25:34.087Z,53.90
2018-09-14T05:26:50.799Z,53.90
2018-09-14T05:28:07.870Z,53.80
2018-09-14T05:29:24.517Z,53.90
2018-09-14T05:30:41.290Z,53.90
2018-09-14T05:31:58.282Z,53.90
2018-09-14T05:33:15.096Z,53.70
2018-09-14T05:34:31.797Z,53.90
2018-09-14T05:35:49.369Z,53.90
2018-09-14T05:37:06.382Z,53.80
2018-09-14T05:38:23.423Z,53.70
2018-09-14T05:39:40.748Z,53.70
2018-09-14T05:40:57.731Z,53.70
2018-09-14T05:42:14.301Z,53.80
2018-09-14T05:43:30.974Z,53.70
2018-09-14T05:44:47.872Z,53.50
2018-09-14T05:46:05.467Z,53.90
2018-09-14T05:47:23.058Z,53.90
2018-09-14T05:48:39.741Z,54.00
2018-09-14T05:49:56.490Z,54.10
2018-09-14T05:51:13.984Z,54.00
2018-09-14T05:52:30.547Z,54.00
2018-09-14T05:53:47.501Z,54.70
2018-09-14T05:55:04.430Z,54.00
2018-09-14T05:56:22.238Z,53.90
2018-09-14T05:57:39.871Z,53.90
2018-09-14T05:58:56.512Z,54.00
2018-09-14T06:00:13.633Z,54.00
2018-09-14T06:01:30.238Z,53.90
2018-09-14T06:02:46.928Z,54.00
2018-09-14T06:04:03.782Z,53.90
2018-09-14T06:05:20.703Z,53.80
2018-09-14T06:06:37.603Z,53.40
2018-09-14T06:07:54.330Z,53.90
2018-09-14T06:09:12.872Z,54.30
2018-09-14T06:10:29.934Z,54.40
2018-09-14T06:11:46.466Z,54.20
2018-09-14T06:13:03.153Z,54.00
2018-09-14T06:14:19.997Z,54.20
2018-09-14T06:15:37.524Z,53.90
2018-09-14T06:16:54.775Z,54.00
2018-09-14T06:18:12.166Z,53.90
2018-09-14T06:19:31.962Z,53.70
2018-09-14T06:20:48.934Z,53.70
2018-09-14T06:22:06.646Z,53.80
2018-09-14T06:23:24.261Z,54.40
2018-09-14T06:24:41.011Z,53.70
2018-09-14T06:25:57.868Z,53.70
2018-09-14T06:27:15.277Z,53.70
2018-09-14T06:28:31.954Z,53.60
2018-09-14T06:29:48.617Z,53.70
2018-09-14T06:31:05.622Z,53.70
2018-09-14T06:32:22.335Z,53.70
2018-09-14T06:33:39.241Z,53.60
2018-09-14T06:34:56.917Z,53.50
2018-09-14T06:36:13.662Z,53.60
2018-09-14T06:37:30.524Z,53.60
2018-09-14T06:38:47.215Z,53.60
2018-09-14T06:40:04.020Z,53.70
2018-09-14T06:41:20.513Z,53.60
2018-09-14T06:42:37.493Z,53.60
2018-09-14T06:43:54.405Z,53.70
2018-09-14T06:45:11.438Z,53.60
2018-09-14T06:46:28.319Z,53.60
2018-09-14T06:47:45.796Z,53.60
2018-09-14T06:49:03.029Z,54.20
2018-09-14T06:50:20.252Z,53.30
2018-09-14T06:51:38.517Z,53.20
2018-09-14T06:52:55.961Z,53.90
2018-09-14T06:54:13.009Z,53.10
2018-09-14T06:55:29.596Z,53.90
2018-09-14T06:56:46.670Z,53.30
2018-09-14T06:58:04.177Z,52.90
2018-09-14T06:59:21.801Z,53.30
2018-09-14T07:00:38.413Z,53.30
2018-09-14T07:01:55.310Z,53.30
2018-09-14T07:03:12.108Z,53.30
2018-09-14T07:04:28.969Z,53.80
2018-09-14T07:05:45.535Z,53.10
2018-09-14T07:07:02.370Z,53.00
2018-09-14T07:08:19.100Z,52.80
2018-09-14T07:09:35.725Z,52.70
2018-09-14T07:10:53.096Z,52.60
2018-09-14T07:12:10.381Z,52.70
2018-09-14T07:13:27.243Z,52.60
2018-09-14T07:14:45.148Z,52.30
2018-09-14T07:16:02.237Z,52.70
2018-09-14T07:17:19.301Z,52.50
2018-09-14T07:18:35.953Z,52.60
2018-09-14T07:19:52.922Z,52.40
2018-09-14T07:21:09.543Z,52.40
2018-09-14T07:22:26.486Z,52.40
2018-09-14T07:23:43.551Z,52.50
2018-09-14T07:25:00.887Z,52.30
2018-09-14T07:26:17.752Z,52.30
2018-09-14T07:27:34.398Z,52.30
2018-09-14T07:28:51.450Z,52.30
2018-09-14T07:30:08.076Z,52.20
2018-09-14T07:31:24.955Z,52.90
2018-09-14T07:32:41.792Z,52.30
2018-09-14T07:33:58.549Z,52.40
2018-09-14T07:35:15.257Z,52.30
2018-09-14T07:36:32.151Z,53.00
2018-09-14T07:37:48.821Z,52.30
2018-09-14T07:39:08.391Z,52.10
2018-09-14T07:40:25.493Z,52.20
2018-09-14T07:41:42.157Z,52.10
2018-09-14T07:42:59.085Z,52.10
2018-09-14T07:44:16.437Z,52.80
2018-09-14T07:45:33.229Z,53.70
2018-09-14T07:46:50.020Z,54.10
2018-09-14T07:48:06.628Z,53.80
2018-09-14T07:49:23.581Z,55.00
2018-09-14T07:50:40.244Z,53.40
2018-09-14T07:51:57.349Z,54.00
2018-09-14T07:53:14.710Z,54.10
2018-09-14T07:54:31.529Z,54.10
2018-09-14T07:55:48.310Z,54.30
2018-09-14T07:57:04.869Z,54.50
2018-09-14T07:58:21.583Z,54.50
2018-09-14T07:59:38.472Z,54.90
2018-09-14T08:00:56.652Z,54.60
2018-09-14T08:02:13.737Z,54.30
2018-09-14T08:03:30.392Z,54.00
2018-09-14T08:04:47.341Z,54.30
2018-09-14T08:06:04.231Z,54.00
2018-09-14T08:07:21.116Z,54.90
2018-09-14T08:08:37.728Z,54.10
2018-09-14T08:09:54.685Z,54.20
2018-09-14T08:11:12.789Z,54.40
2018-09-14T08:12:29.831Z,54.50
2018-09-14T08:13:46.823Z,54.20
2018-09-14T08:15:04.461Z,54.00
2018-09-14T08:16:21.141Z,54.10
2018-09-14T08:17:38.007Z,53.80
2018-09-14T08:18:54.653Z,53.90
2018-09-14T08:20:11.350Z,53.90
2018-09-14T08:21:28.198Z,54.00
2018-09-14T08:22:45.889Z,54.10
2018-09-14T08:24:03.495Z,54.40
2018-09-14T08:25:20.044Z,54.40
2018-09-14T08:26:37.003Z,54.40
2018-09-14T08:27:53.662Z,54.60
2018-09-14T08:29:10.541Z,54.70
2018-09-14T08:30:27.385Z,54.90
2018-09-14T08:31:44.398Z,54.50
2018-09-14T08:33:01.246Z,54.30
2018-09-14T08:34:18.021Z,54.20
2018-09-14T08:35:34.690Z,54.40
2018-09-14T08:36:51.590Z,53.70
2018-09-14T08:38:08.307Z,54.50
2018-09-14T08:39:25.079Z,54.00
2018-09-14T08:40:42.098Z,54.20
2018-09-14T08:41:59.639Z,53.90
2018-09-14T08:43:16.525Z,53.80
2018-09-14T08:44:33.204Z,53.80
2018-09-14T08:45:50.268Z,53.50
2018-09-14T08:47:07.035Z,53.20
2018-09-14T08:48:26.574Z,53.10
2018-09-14T08:49:43.646Z,53.30
2018-09-14T08:51:00.241Z,53.40
2018-09-14T08:52:17.050Z,54.70
2018-09-14T08:53:33.917Z,53.00
2018-09-14T08:54:50.447Z,53.50
2018-09-14T08:56:07.168Z,53.20
2018-09-14T08:57:23.945Z,53.80
2018-09-14T08:58:40.895Z,53.10
2018-09-14T08:59:57.507Z,53.20
2018-09-14T09:01:14.590Z,53.40
2018-09-14T09:02:32.077Z,53.50
2018-09-14T09:03:49.345Z,53.30
2018-09-14T09:05:05.858Z,53.10
2018-09-14T09:06:22.841Z,53.00
2018-09-14T09:07:39.430Z,53.00
2018-09-14T09:08:56.045Z,53.10
2018-09-14T09:10:12.981Z,53.10
2018-09-14T09:11:30.726Z,53.70
2018-09-14T09:12:48.655Z,53.10
2018-09-14T09:14:05.723Z,53.20
2018-09-14T09:15:22.529Z,53.30
2018-09-14T09:16:39.821Z,53.20
2018-09-14T09:17:56.785Z,53.10
2018-09-14T09:19:13.731Z,53.10
2018-09-14T09:20:30.324Z,53.20
2018-09-14T09:21:47.921Z,53.60
2018-09-14T09:23:05.645Z,53.40
2018-09-14T09:24:22.062Z,53.50
2018-09-14T09:25:38.930Z,53.40
2018-09-14T09:26:56.400Z,53.10
2018-09-14T09:28:12.970Z,53.20
2018-09-14T09:29:30.041Z,53.70
2018-09-14T09:30:53.570Z,53.90
2018-09-14T09:32:10.917Z,54.20
2018-09-14T09:33:27.580Z,54.10
2018-09-14T09:34:44.573Z,54.10
2018-09-14T09:36:01.683Z,54.00
2018-09-14T09:37:18.438Z,54.00
2018-09-14T09:38:35.945Z,53.80
2018-09-14T09:39:52.932Z,53.90
2018-09-14T09:41:10.303Z,53.70
2018-09-14T09:42:27.150Z,53.80
2018-09-14T09:43:44.165Z,54.10
2018-09-14T09:45:01.594Z,54.30
2018-09-14T09:46:18.900Z,54.10
2018-09-14T09:47:35.818Z,54.00
2018-09-14T09:48:52.690Z,53.70
2018-09-14T09:50:09.372Z,53.80
2018-09-14T09:51:26.081Z,53.70
2018-09-14T09:52:43.713Z,53.70
2018-09-14T09:54:00.245Z,53.60
2018-09-14T09:55:16.815Z,54.20
2018-09-14T09:56:33.703Z,54.70
2018-09-14T09:57:50.308Z,54.20
2018-09-14T09:59:07.211Z,54.30
2018-09-14T10:00:30.004Z,54.40
2018-09-14T10:01:52.588Z,54.60
2018-09-14T10:03:17.234Z,54.60
2018-09-14T10:05:42.437Z,54.30
2018-09-14T10:06:59.388Z,55.00
2018-09-14T10:08:16.827Z,54.40
2018-09-14T10:09:33.484Z,54.10
2018-09-14T10:10:50.937Z,53.90
2018-09-14T10:12:08.151Z,54.10
2018-09-14T10:13:25.672Z,54.20
2018-09-14T10:14:42.434Z,54.20
2018-09-14T10:15:59.335Z,55.00
2018-09-14T10:17:16.149Z,54.60
2018-09-14T10:18:33.076Z,53.90
2018-09-14T10:19:49.731Z,54.00
2018-09-14T10:21:06.978Z,53.90
2018-09-14T10:22:24.367Z,54.00
2018-09-14T10:23:41.284Z,54.00
2018-09-14T10:24:58.121Z,54.00
2018-09-14T10:26:14.963Z,54.00
2018-09-14T10:27:32.673Z,53.80
2018-09-14T10:28:50.157Z,53.70
2018-09-14T10:30:06.899Z,53.60
2018-09-14T10:31:23.738Z,53.60
2018-09-14T10:32:40.407Z,53.50
2018-09-14T10:33:57.386Z,53.70
2018-09-14T10:35:15.115Z,53.80
2018-09-14T10:36:32.764Z,53.90
2018-09-14T10:37:49.682Z,53.80
2018-09-14T10:39:09.296Z,53.80
2018-09-14T10:40:25.883Z,54.00
2018-09-14T10:41:42.824Z,54.00
2018-09-14T10:42:59.656Z,54.00
2018-09-14T10:44:17.128Z,54.20
2018-09-14T10:45:33.889Z,54.30
2018-09-14T10:46:50.592Z,54.20
2018-09-14T10:48:07.554Z,54.50
2018-09-14T10:49:24.309Z,55.20
2018-09-14T10:50:41.056Z,54.50
2018-09-14T10:51:57.816Z,54.70
2018-09-14T10:53:15.562Z,55.40
2018-09-14T10:54:33.056Z,55.50
2018-09-14T10:55:50.518Z,54.80
2018-09-14T10:57:07.170Z,54.80
2018-09-14T10:58:24.063Z,54.90
2018-09-14T10:59:40.933Z,55.10
2018-09-14T11:00:57.799Z,55.30
2018-09-14T11:02:14.884Z,55.00
2018-09-14T11:03:32.193Z,55.30
2018-09-14T11:04:49.653Z,55.20
2018-09-14T11:06:06.639Z,55.10
2018-09-14T11:07:23.418Z,55.00
2018-09-14T11:08:41.126Z,55.20
2018-09-14T11:09:57.865Z,55.40
2018-09-14T11:11:14.821Z,55.20
2018-09-14T11:12:31.442Z,55.00
2018-09-14T11:13:48.555Z,55.90
2018-09-14T11:15:05.390Z,55.20
2018-09-14T11:16:22.934Z,55.20
2018-09-14T11:17:39.758Z,55.30
2018-09-14T11:18:56.489Z,55.80
2018-09-14T11:20:13.349Z,55.60
2018-09-14T11:21:31.385Z,55.50
2018-09-14T11:22:48.850Z,55.50
2018-09-14T11:24:07.125Z,55.60
2018-09-14T11:25:24.242Z,55.70
2018-09-14T11:26:41.472Z,56.00
2018-09-14T11:27:58.365Z,55.80
2018-09-14T11:29:15.282Z,56.00
2018-09-14T11:30:36.260Z,56.00
2018-09-14T11:31:53.496Z,56.00
2018-09-14T11:33:12.519Z,55.80
2018-09-14T11:34:29.684Z,55.60
2018-09-14T11:35:46.271Z,55.40
2018-09-14T11:37:03.161Z,55.70
2018-09-14T11:38:21.496Z,55.40
2018-09-14T11:39:38.982Z,56.20
2018-09-14T11:40:56.417Z,55.40
2018-09-14T11:42:13.208Z,55.30
2018-09-14T11:43:29.862Z,55.40
2018-09-14T11:44:46.575Z,56.00
2018-09-14T11:46:03.164Z,55.80
2018-09-14T11:47:19.638Z,56.30
2018-09-14T11:48:36.925Z,55.70
2018-09-14T11:49:54.833Z,56.20
2018-09-14T11:51:12.045Z,55.30
2018-09-14T11:52:29.013Z,55.30
2018-09-14T11:53:46.672Z,55.00
2018-09-14T11:55:04.006Z,55.90
2018-09-14T11:56:21.907Z,55.10
2018-09-14T11:57:39.434Z,55.10
2018-09-14T11:58:56.501Z,55.30
2018-09-14T12:00:14.195Z,55.30
2018-09-14T12:01:31.591Z,55.40
2018-09-14T12:02:48.478Z,55.50
2018-09-14T12:04:06.130Z,55.50
2018-09-14T12:05:23.092Z,55.80
2018-09-14T12:06:41.589Z,55.00
2018-09-14T12:07:58.436Z,55.20
2018-09-14T12:09:15.398Z,55.50
2018-09-14T12:10:32.830Z,56.00
2018-09-14T12:11:49.853Z,55.00
2018-09-14T12:13:07.365Z,55.30
2018-09-14T12:14:25.117Z,55.20
2018-09-14T12:15:45.379Z,55.00
2018-09-14T12:17:05.039Z,55.00
2018-09-14T12:18:22.383Z,54.90
2018-09-14T12:19:39.382Z,55.00
2018-09-14T12:20:55.939Z,55.00
2018-09-14T12:22:12.928Z,55.20
2018-09-14T12:23:29.448Z,55.10
2018-09-14T12:24:46.289Z,55.10
2018-09-14T12:26:03.696Z,55.00
2018-09-14T12:27:21.048Z,55.80
2018-09-14T12:28:38.779Z,55.90
2018-09-14T12:29:56.327Z,54.70
2018-09-14T12:31:13.050Z,55.20
2018-09-14T12:32:30.605Z,54.70
2018-09-14T12:33:48.148Z,54.60
2018-09-14T12:35:06.013Z,54.50
2018-09-14T12:36:23.086Z,54.70
2018-09-14T12:37:39.847Z,54.50
2018-09-14T12:38:56.917Z,54.00
2018-09-14T12:40:14.478Z,54.00
2018-09-14T12:41:32.065Z,53.80
2018-09-14T12:42:49.894Z,53.50
2018-09-14T12:44:10.814Z,53.80
2018-09-14T12:45:27.984Z,54.00
2018-09-14T12:46:44.560Z,53.50
2018-09-14T12:48:02.247Z,52.70
2018-09-14T12:49:19.511Z,52.70
2018-09-14T12:50:36.989Z,51.80
2018-09-14T12:51:54.175Z,51.80
2018-09-14T12:53:12.561Z,52.40
2018-09-14T12:54:29.187Z,52.10
2018-09-14T12:55:46.386Z,52.40
2018-09-14T12:57:04.198Z,52.60
2018-09-14T12:58:21.883Z,52.70
2018-09-14T12:59:38.882Z,52.60
2018-09-14T13:00:57.362Z,53.40
2018-09-14T13:02:14.153Z,52.70
2018-09-14T13:03:30.667Z,52.90
2018-09-14T13:04:47.614Z,53.40
2018-09-14T13:06:04.889Z,53.00
2018-09-14T13:07:22.300Z,53.10
2018-09-14T13:08:39.405Z,52.90
2018-09-14T13:09:55.981Z,52.90
2018-09-14T13:11:13.053Z,53.10
2018-09-14T13:12:30.546Z,53.80
2018-09-14T13:13:47.460Z,53.20
2018-09-14T13:15:04.375Z,53.00
2018-09-14T13:16:21.086Z,53.10
2018-09-14T13:17:38.846Z,53.70
2018-09-14T13:18:56.174Z,52.50
2018-09-14T13:20:12.910Z,52.40
2018-09-14T13:21:29.972Z,52.30
2018-09-14T13:22:47.040Z,51.90
2018-09-14T13:24:04.263Z,52.40
2018-09-14T13:25:21.870Z,52.60
2018-09-14T13:26:38.848Z,52.70
2018-09-14T13:27:56.394Z,53.10
2018-09-14T13:29:16.457Z,53.00
2018-09-14T13:30:39.279Z,52.80
2018-09-14T13:32:00.346Z,53.30
2018-09-14T13:33:17.905Z,52.70
2018-09-14T13:34:35.582Z,52.50
2018-09-14T13:35:52.933Z,51.70
2018-09-14T13:37:10.183Z,52.50
2018-09-14T13:38:27.678Z,52.60
2018-09-14T13:39:44.491Z,51.60
2018-09-14T13:41:02.315Z,51.30
2018-09-14T13:42:19.239Z,51.90
2018-09-14T13:43:36.925Z,51.50
2018-09-14T13:44:53.492Z,51.50
2018-09-14T13:46:10.600Z,51.10
2018-09-14T13:47:27.986Z,50.60
2018-09-14T13:48:44.655Z,51.40
2018-09-14T13:50:01.452Z,51.30
2018-09-14T13:51:18.162Z,51.60
2018-09-14T13:52:36.078Z,51.50
2018-09-14T13:53:53.609Z,50.70
2018-09-14T13:55:10.425Z,50.50
2018-09-14T13:56:27.337Z,50.80
2018-09-14T13:57:44.009Z,51.10
2018-09-14T13:59:01.113Z,51.60
2018-09-14T14:00:18.402Z,51.10
2018-09-14T14:01:35.152Z,50.70
2018-09-14T14:02:52.256Z,50.60
2018-09-14T14:04:09.697Z,51.10
2018-09-14T14:05:26.777Z,51.20
2018-09-14T14:06:44.480Z,50.50
2018-09-14T14:08:01.580Z,50.40
2018-09-14T14:09:18.633Z,51.10
2018-09-14T14:10:35.752Z,50.50
2018-09-14T14:11:53.217Z,50.50
2018-09-14T14:13:10.129Z,50.60
2018-09-14T14:14:27.689Z,50.90
2018-09-14T14:15:44.747Z,51.20
2018-09-14T14:17:02.517Z,51.50
2018-09-14T14:18:20.068Z,51.30
2018-09-14T14:19:36.888Z,51.80
2018-09-14T14:20:54.842Z,51.50
2018-09-14T14:22:12.177Z,51.10
2018-09-14T14:23:29.137Z,50.50
2018-09-14T14:24:45.754Z,50.30
2018-09-14T14:26:02.534Z,50.60
2018-09-14T14:27:19.643Z,50.10
2018-09-14T14:28:37.405Z,50.20
2018-09-14T14:29:54.916Z,50.60
2018-09-14T14:31:11.579Z,50.90
2018-09-14T14:32:28.307Z,50.90
2018-09-14T14:33:45.365Z,51.30
2018-09-14T14:35:03.786Z,50.90
2018-09-14T14:36:21.042Z,50.70
2018-09-14T14:37:37.853Z,50.90
2018-09-14T14:38:54.793Z,50.90
2018-09-14T14:40:12.236Z,50.90
2018-09-14T14:41:29.310Z,51.00
2018-09-14T14:42:46.087Z,51.00
2018-09-14T14:44:03.152Z,50.90
2018-09-14T14:45:20.601Z,50.50
2018-09-14T14:46:38.994Z,51.30
2018-09-14T14:47:56.082Z,50.20
2018-09-14T14:49:12.817Z,51.80
2018-09-14T14:50:29.636Z,50.70
2018-09-14T14:51:46.565Z,50.50
2018-09-14T14:53:03.307Z,50.80
2018-09-14T14:54:20.875Z,51.10
2018-09-14T14:55:38.076Z,51.40
2018-09-14T14:56:55.148Z,50.30
2018-09-14T14:58:13.138Z,50.00
2018-09-14T14:59:30.526Z,49.80
2018-09-14T15:00:47.250Z,49.60
2018-09-14T15:02:04.209Z,49.60
2018-09-14T15:03:21.695Z,49.80
2018-09-14T15:04:38.344Z,49.80
2018-09-14T15:05:55.236Z,49.60
2018-09-14T15:07:12.335Z,49.20
2018-09-14T15:08:29.742Z,49.70
2018-09-14T15:09:46.833Z,50.30
2018-09-14T15:11:04.822Z,50.20
2018-09-14T15:12:22.078Z,49.20
2018-09-14T15:13:38.982Z,48.70
2018-09-14T15:14:55.906Z,49.90
2018-09-14T15:17:07.113Z,50.20
2018-09-14T15:18:24.156Z,50.20
2018-09-14T15:19:40.809Z,50.10
2018-09-14T15:20:57.881Z,49.90
2018-09-14T15:22:14.912Z,49.20
2018-09-14T15:23:31.720Z,49.10
2018-09-14T15:24:48.880Z,48.90
2018-09-14T15:26:06.108Z,49.20
2018-09-14T15:27:22.896Z,49.50
2018-09-14T15:28:39.585Z,49.70
2018-09-14T15:29:56.503Z,50.00
2018-09-14T15:31:13.174Z,50.50
2018-09-14T15:32:30.577Z,50.50
2018-09-14T15:33:47.420Z,50.10
2018-09-14T15:35:04.310Z,49.70
2018-09-14T15:36:21.065Z,48.70
2018-09-14T15:37:38.447Z,49.30
2018-09-14T15:38:55.452Z,48.80
2018-09-14T15:40:13.081Z,49.00
2018-09-14T15:41:30.742Z,48.60
2018-09-14T15:42:48.417Z,49.50
2018-09-14T15:44:05.889Z,49.60
2018-09-14T15:45:22.585Z,49.40
2018-09-14T15:46:39.584Z,48.30
2018-09-14T15:47:56.494Z,49.10
2018-09-14T15:49:14.273Z,48.70
2018-09-14T15:50:31.093Z,48.90
2018-09-14T15:51:48.674Z,49.30
2018-09-14T15:53:05.487Z,48.20
2018-09-14T15:54:22.341Z,48.40
2018-09-14T15:55:39.187Z,48.40
2018-09-14T15:56:55.951Z,48.70
2018-09-14T15:58:13.875Z,49.00
2018-09-14T15:59:32.036Z,50.00
2018-09-14T16:00:50.342Z,49.20
2018-09-14T16:02:07.893Z,49.20
2018-09-14T16:03:24.686Z,49.40
2018-09-14T16:04:41.582Z,49.70
2018-09-14T16:05:58.389Z,49.00
2018-09-14T16:07:16.105Z,49.00
2018-09-14T16:08:32.826Z,49.70
2018-09-14T16:09:49.620Z,49.70
2018-09-14T16:11:07.565Z,49.30
2018-09-14T16:12:25.131Z,49.00
2018-09-14T16:13:42.175Z,49.50
2018-09-14T16:14:59.514Z,50.20
2018-09-14T16:16:16.507Z,49.80
2018-09-14T16:17:33.220Z,49.70
2018-09-14T16:18:50.239Z,49.00
2018-09-14T16:20:07.897Z,49.00
2018-09-14T16:21:25.427Z,49.40
2018-09-14T16:22:42.572Z,49.20
2018-09-14T16:24:00.198Z,49.10
2018-09-14T16:25:17.778Z,49.10
2018-09-14T16:26:34.345Z,49.90
2018-09-14T16:27:51.282Z,50.00
2018-09-14T16:29:07.951Z,49.20
2018-09-14T16:30:25.061Z,49.80
2018-09-14T16:31:41.922Z,49.90
2018-09-14T16:32:58.819Z,49.40
2018-09-14T16:34:17.074Z,49.10
2018-09-14T16:35:33.999Z,50.00